Time;durP1;ratioP1;P1;durP2;ratioP2;P2;SDS_P1;SDS_P2;PMS_P1;PMS_P2;Temp;Humidity;BMP_temperature;BMP_pressure;BME280_temperature;BME280_humidity;BME280_pressure;Samples;Min_cycle;Max_cycle;Signal;HPM_P1;HPM_P2
2021/05/06 00:00:27;;;;;;;10.18;1.77;;;4.70;99.70;;;;;;5022520;28;20308;-66
2021/05/06 00:32:38;;;;;;;11.63;2.65;;;4.90;99.90;;;;;;5020005;28;20037;-66
2021/05/06 00:35:06;;;;;;;11.77;2.30;;;4.90;99.90;;;;;;5022628;28;20487;-66
2021/05/06 00:37:40;;;;;;;6.05;1.77;;;4.90;99.90;;;;;;5021793;28;20696;-66
2021/05/06 00:40:08;;;;;;;14.07;3.45;;;4.90;99.90;;;;;;5021531;28;20052;-66
2021/05/06 00:56:25;;;;;;;17.27;4.82;;;4.70;99.90;;;;;;5023581;28;20152;-66
2021/05/06 01:12:42;;;;;;;10.55;2.58;;;4.60;99.90;;;;;;5014784;28;20045;-66
2021/05/06 01:15:09;;;;;;;12.60;2.97;;;4.60;99.90;;;;;;5022847;28;20562;-67
2021/05/06 01:17:35;;;;;;;9.57;2.22;;;4.60;99.90;;;;;;5021172;28;20056;-66
2021/05/06 01:20:01;;;;;;;11.30;2.22;;;4.50;99.90;;;;;;5022427;28;20041;-66
2021/05/06 01:22:26;;;;;;;10.20;2.63;;;4.40;99.90;;;;;;5021133;28;20095;-66
2021/05/06 01:24:57;;;;;;;14.15;4.28;;;4.40;99.90;;;;;;5022941;28;20083;-66
2021/05/06 01:27:32;;;;;;;7.03;2.50;;;4.40;99.90;;;;;;5022490;28;20501;-66
2021/05/06 01:32:48;;;;;;;9.77;2.70;;;4.40;99.90;;;;;;5018089;28;20057;-66
2021/05/06 01:35:39;;;;;;;9.70;2.50;;;4.30;99.90;;;;;;5020686;28;20045;-66
2021/05/06 01:57:35;;;;;;;8.05;2.85;;;4.20;99.90;;;;;;5025865;28;20042;-66
2021/05/06 02:00:27;;;;;;;10.32;2.47;;;4.20;99.90;;;;;;5025833;28;20163;-66
2021/05/06 02:02:53;;;;;;;11.43;2.72;;;4.20;99.90;;;;;;5021419;28;20104;-66
2021/05/06 02:05:18;;;;;;;8.75;2.30;;;4.20;99.90;;;;;;5028176;28;20040;-66
2021/05/06 02:07:46;;;;;;;10.10;2.60;;;4.20;99.90;;;;;;5025039;28;20371;-66
2021/05/06 02:10:15;;;;;;;12.15;2.95;;;4.20;99.90;;;;;;5025437;28;20045;-66
2021/05/06 02:12:41;;;;;;;9.63;2.53;;;4.20;99.90;;;;;;5025270;28;20041;-66
2021/05/06 02:15:16;;;;;;;7.93;2.30;;;4.10;99.90;;;;;;5025881;28;20117;-66
2021/05/06 02:17:43;;;;;;;5.60;2.30;;;4.10;99.90;;;;;;5024382;28;20049;-66
2021/05/06 02:20:09;;;;;;;6.35;2.58;;;4.10;99.90;;;;;;5024226;28;20591;-66
2021/05/06 02:22:35;;;;;;;6.25;2.63;;;4.20;99.90;;;;;;5021588;28;20041;-66
2021/05/06 02:25:01;;;;;;;6.20;2.60;;;4.10;99.90;;;;;;5026098;28;20115;-66
2021/05/06 02:27:26;;;;;;;5.75;2.17;;;4.10;99.90;;;;;;5027393;28;20475;-66
2021/05/06 02:29:52;;;;;;;6.03;2.03;;;4.10;99.90;;;;;;5022753;28;20563;-66
2021/05/06 02:32:18;;;;;;;5.35;3.03;;;4.10;99.90;;;;;;5021450;28;20092;-66
2021/05/06 02:34:45;;;;;;;4.82;2.47;;;4.10;99.90;;;;;;5026125;28;20135;-66
2021/05/06 02:37:12;;;;;;;6.10;2.38;;;4.10;99.90;;;;;;5027249;28;20041;-66
2021/05/06 02:39:38;;;;;;;6.72;2.40;;;4.10;99.90;;;;;;5024566;28;20037;-66
2021/05/06 02:42:04;;;;;;;5.97;2.25;;;4.10;99.90;;;;;;5022860;28;20419;-66
2021/05/06 02:44:33;;;;;;;8.23;3.00;;;4.10;99.90;;;;;;5022640;28;20110;-66
2021/05/06 02:46:59;;;;;;;5.15;2.65;;;4.10;99.90;;;;;;5025662;28;20037;-66
2021/05/06 02:49:26;;;;;;;5.93;2.95;;;4.10;99.90;;;;;;5025564;28;20045;-66
2021/05/06 02:51:55;;;;;;;6.22;2.22;;;4.10;99.90;;;;;;5021859;28;20116;-66
2021/05/06 02:54:21;;;;;;;6.30;2.55;;;4.10;99.90;;;;;;5024083;28;20045;-66
2021/05/06 02:56:57;;;;;;;5.85;2.63;;;4.10;99.90;;;;;;5023662;28;20064;-66
2021/05/06 03:04:40;;;;;;;4.20;2.60;;;4.00;99.90;;;;;;5025587;28;20036;-66
2021/05/06 03:07:08;;;;;;;6.75;3.15;;;4.00;99.90;;;;;;5026710;28;20038;-66
2021/05/06 03:21:21;;;;;;;5.03;2.88;;;4.00;99.90;;;;;;5024596;28;20049;-66
2021/05/06 03:22:58;;;;;;;5.53;2.92;;;4.10;99.90;;;;;;5008093;28;20049;-66
2021/05/06 03:25:25;;;;;;;8.55;2.55;;;4.10;99.90;;;;;;5023498;28;20048;-66
2021/05/06 03:34:39;;;;;;;3.97;2.92;;;4.20;99.90;;;;;;5025184;28;20042;-66
2021/05/06 03:44:12;;;;;;;4.05;3.63;;;4.20;99.90;;;;;;5024164;28;20053;-66
2021/05/06 03:46:53;;;;;;;4.05;2.83;;;4.30;99.90;;;;;;5023369;28;20045;-66
2021/05/06 04:38:01;;;;;;;6.43;2.78;;;4.50;99.90;;;;;;5020445;28;20503;-66
2021/05/06 04:54:07;;;;;;;4.38;2.13;;;4.80;99.90;;;;;;5022089;28;20041;-66
2021/05/06 05:03:15;;;;;;;4.75;2.20;;;5.50;99.90;;;;;;5018037;28;20128;-66
2021/05/06 05:04:58;;;;;;;5.55;1.77;;;6.40;99.90;;;;;;5024461;28;20069;-67
2021/05/06 05:23:47;;;;;;;2.10;1.08;;;14.60;81.40;;;;;;5022397;28;20048;-67
2021/05/06 05:26:27;;;;;;;1.92;1.02;;;15.20;71.00;;;;;;5021384;28;20046;-67
2021/05/06 05:28:52;;;;;;;4.65;1.10;;;15.60;66.20;;;;;;5020842;28;20487;-67
2021/05/06 05:31:18;;;;;;;4.18;0.90;;;16.20;65.50;;;;;;5016933;28;20029;-67
2021/05/06 05:33:51;;;;;;;1.38;0.60;;;16.90;62.80;;;;;;5023536;28;20120;-67
2021/05/06 05:36:20;;;;;;;2.23;0.77;;;17.50;57.40;;;;;;5023169;28;20154;-67
2021/05/06 05:38:53;;;;;;;5.30;0.73;;;18.20;57.20;;;;;;5022575;28;20505;-67
2021/05/06 05:54:48;;;;;;;2.67;1.05;;;19.40;51.00;;;;;;4980766;28;20173;-68
2021/05/06 05:57:14;;;;;;;1.02;0.57;;;18.70;51.50;;;;;;4980020;28;20056;-68
2021/05/06 05:59:40;;;;;;;4.15;0.90;;;17.40;51.00;;;;;;5000782;28;20057;-68
2021/05/06 06:02:06;;;;;;;3.42;1.15;;;16.40;54.70;;;;;;5016181;28;20047;-67
2021/05/06 06:04:32;;;;;;;2.25;0.95;;;15.50;57.00;;;;;;5025463;28;20044;-68
2021/05/06 06:06:57;;;;;;;4.40;0.93;;;14.80;61.20;;;;;;5022769;28;20045;-68
2021/05/06 06:09:23;;;;;;;3.83;1.15;;;14.20;63.00;;;;;;5024041;28;20841;-68
2021/05/06 06:11:49;;;;;;;2.85;1.10;;;13.50;65.40;;;;;;5020699;28;20056;-68
2021/05/06 06:14:20;;;;;;;4.57;1.30;;;13.20;69.90;;;;;;5021301;28;20108;-67
2021/05/06 06:16:45;;;;;;;5.00;2.15;;;12.90;70.50;;;;;;5021478;28;20049;-67
2021/05/06 06:19:11;;;;;;;2.25;1.10;;;12.60;72.40;;;;;;5022364;28;20033;-68
2021/05/06 06:24:05;;;;;;;3.88;1.30;;;12.30;78.70;;;;;;5018103;28;20045;-67
2021/05/06 06:26:31;;;;;;;4.25;2.15;;;12.40;80.20;;;;;;5022218;28;20032;-67
2021/05/06 06:29:08;;;;;;;2.90;1.50;;;12.40;79.90;;;;;;5022525;28;20160;-67
2021/05/06 06:31:41;;;;;;;3.05;1.67;;;12.40;80.50;;;;;;5018891;28;20038;-67
2021/05/06 06:34:07;;;;;;;2.00;1.30;;;12.30;79.80;;;;;;5020648;28;20388;-67
2021/05/06 06:36:34;;;;;;;3.67;1.50;;;12.20;81.90;;;;;;5023234;28;20561;-67
2021/05/06 06:39:01;;;;;;;1.50;0.93;;;12.20;82.50;;;;;;5026168;28;21838;-67
2021/05/06 06:41:27;;;;;;;3.08;1.15;;;12.30;82.30;;;;;;5019143;28;20123;-67
2021/05/06 06:43:55;;;;;;;1.60;1.23;;;12.50;82.20;;;;;;5026806;28;20044;-67
2021/05/06 06:46:21;;;;;;;3.47;1.20;;;12.30;80.40;;;;;;5026984;28;20038;-67
2021/05/06 06:48:47;;;;;;;3.75;1.52;;;12.50;82.60;;;;;;5021061;28;20052;-67
2021/05/06 06:51:15;;;;;;;2.67;1.23;;;12.50;82.80;;;;;;5019950;28;20048;-67
2021/05/06 06:53:41;;;;;;;3.92;1.50;;;12.70;82.50;;;;;;5025722;28;20041;-68
2021/05/06 06:56:07;;;;;;;3.75;1.30;;;12.60;80.00;;;;;;5023309;28;20056;-67
2021/05/06 06:58:33;;;;;;;3.58;1.42;;;12.60;78.90;;;;;;5023712;28;20049;-67
2021/05/06 07:01:00;;;;;;;1.80;1.00;;;12.70;82.70;;;;;;5020813;28;20483;-67
2021/05/06 07:03:26;;;;;;;2.38;1.30;;;12.90;82.10;;;;;;5026118;28;20478;-67
2021/05/06 07:05:52;;;;;;;1.92;1.17;;;12.90;80.00;;;;;;5025158;28;20052;-67
2021/05/06 07:08:25;;;;;;;3.10;1.67;;;13.20;80.60;;;;;;5025099;28;20056;-67
2021/05/06 07:10:56;;;;;;;3.88;1.75;;;13.30;81.60;;;;;;5018557;28;20058;-67
2021/05/06 07:13:22;;;;;;;3.10;1.17;;;13.20;76.70;;;;;;5025691;28;20205;-67
2021/05/06 07:15:53;;;;;;;2.83;1.48;;;13.30;79.50;;;;;;5024504;28;20045;-67
2021/05/06 07:18:21;;;;;;;3.05;1.20;;;13.50;78.90;;;;;;5020523;28;20041;-67
2021/05/06 07:20:47;;;;;;;2.20;1.20;;;13.40;76.90;;;;;;5017317;28;21378;-68
2021/05/06 07:23:15;;;;;;;3.08;1.08;;;13.40;76.80;;;;;;5020438;28;20094;-67
2021/05/06 07:25:41;;;;;;;1.95;1.17;;;13.30;76.60;;;;;;5018070;28;20451;-67
2021/05/06 07:28:11;;;;;;;2.88;0.82;;;13.20;74.60;;;;;;5017417;28;20116;-67
2021/05/06 07:30:37;;;;;;;2.80;1.55;;;13.10;79.80;;;;;;5018899;28;20168;-67
2021/05/06 07:33:03;;;;;;;3.42;1.58;;;13.10;77.10;;;;;;5020382;28;20033;-68
2021/05/06 07:35:31;;;;;;;2.50;1.10;;;13.20;77.40;;;;;;5022102;28;20112;-68
2021/05/06 07:37:57;;;;;;;4.03;0.90;;;13.00;78.40;;;;;;5020750;28;20052;-67
2021/05/06 07:40:23;;;;;;;6.75;1.20;;;13.00;77.40;;;;;;5021615;28;20072;-67
2021/05/06 07:42:49;;;;;;;6.03;0.80;;;12.80;75.80;;;;;;5018923;28;20037;-67
2021/05/06 07:45:14;;;;;;;4.50;0.80;;;13.00;80.50;;;;;;5020652;28;20041;-67
2021/05/06 07:47:40;;;;;;;4.82;0.80;;;13.10;78.50;;;;;;5018423;28;20042;-67
2021/05/06 07:50:07;;;;;;;3.60;1.27;;;12.80;74.60;;;;;;5020044;28;20485;-68
2021/05/06 07:52:33;;;;;;;7.07;1.20;;;12.50;76.50;;;;;;5017193;28;20091;-68
2021/05/06 07:54:59;;;;;;;8.02;1.02;;;12.80;80.30;;;;;;5021533;28;20099;-67
2021/05/06 07:57:25;;;;;;;3.53;1.13;;;13.10;78.60;;;;;;5022980;28;20042;-68
2021/05/06 07:59:52;;;;;;;3.88;0.85;;;13.60;79.20;;;;;;5019120;28;20119;-68
2021/05/06 08:02:18;;;;;;;4.30;1.00;;;13.80;75.50;;;;;;5015100;28;20458;-68
2021/05/06 08:04:44;;;;;;;4.32;0.90;;;13.60;74.20;;;;;;5017773;28;20041;-68
2021/05/06 08:07:10;;;;;;;3.97;0.98;;;13.70;75.00;;;;;;5017268;28;20100;-68
2021/05/06 08:09:35;;;;;;;5.03;1.20;;;14.00;74.20;;;;;;5019700;28;20384;-68
2021/05/06 08:12:02;;;;;;;8.05;1.17;;;14.00;70.50;;;;;;5017580;28;20486;-68
2021/05/06 08:14:28;;;;;;;7.65;1.05;;;13.80;69.40;;;;;;5020399;28;20041;-68
2021/05/06 08:16:54;;;;;;;6.80;1.20;;;13.70;69.50;;;;;;5016439;28;20519;-68
2021/05/06 08:19:20;;;;;;;3.45;0.70;;;13.80;69.10;;;;;;5017511;28;20404;-68
2021/05/06 08:21:46;;;;;;;3.97;0.70;;;13.90;67.50;;;;;;5015358;28;20045;-67
2021/05/06 08:24:13;;;;;;;5.32;1.13;;;13.90;70.40;;;;;;5019561;28;20556;-68
2021/05/06 08:26:38;;;;;;;3.15;1.25;;;14.00;70.60;;;;;;5022397;28;20053;-68
2021/05/06 08:29:04;;;;;;;6.22;1.90;;;13.80;69.90;;;;;;5021447;28;20388;-68
2021/05/06 08:31:30;;;;;;;2.95;1.58;;;13.30;71.60;;;;;;5019316;28;20431;-68
2021/05/06 08:33:56;;;;;;;5.95;1.55;;;12.90;73.70;;;;;;5016900;28;20066;-67
2021/05/06 08:36:23;;;;;;;7.22;1.75;;;12.60;73.00;;;;;;5020441;28;20367;-68
2021/05/06 08:38:48;;;;;;;3.70;1.35;;;12.80;75.30;;;;;;5022238;28;20532;-68
2021/05/06 08:41:14;;;;;;;3.95;1.20;;;13.00;69.90;;;;;;5018011;28;20280;-68
2021/05/06 08:43:43;;;;;;;4.22;1.60;;;13.10;69.90;;;;;;5019213;28;20077;-68
2021/05/06 08:46:09;;;;;;;7.20;1.80;;;13.10;72.40;;;;;;5016184;28;20038;-68
2021/05/06 08:48:35;;;;;;;6.28;2.00;;;13.30;73.40;;;;;;5016087;28;20413;-68
2021/05/06 08:51:00;;;;;;;6.13;2.10;;;13.50;73.10;;;;;;5017610;28;20728;-68
2021/05/06 08:53:26;;;;;;;3.70;2.03;;;14.00;74.50;;;;;;5018108;28;20107;-68
2021/05/06 08:55:53;;;;;;;4.95;2.03;;;14.00;64.90;;;;;;5022604;28;20037;-68
2021/05/06 08:58:21;;;;;;;4.28;2.10;;;13.90;67.20;;;;;;5016966;28;20049;-68
2021/05/06 09:00:46;;;;;;;5.55;1.77;;;13.70;69.00;;;;;;5017687;28;20700;-68
2021/05/06 09:03:13;;;;;;;3.22;1.70;;;13.60;71.10;;;;;;5021588;28;20038;-68
2021/05/06 09:06:07;;;;;;;8.90;2.47;;;13.70;66.00;;;;;;5021914;28;20111;-68
2021/05/06 09:08:34;;;;;;;4.75;2.53;;;13.50;65.10;;;;;;5017603;28;20077;-68
2021/05/06 09:10:59;;;;;;;4.78;2.17;;;13.40;67.80;;;;;;5015768;28;20064;-68
2021/05/06 09:13:30;;;;;;;5.47;2.83;;;13.20;69.60;;;;;;5018041;28;20445;-68
2021/05/06 09:15:56;;;;;;;4.05;2.45;;;13.40;70.80;;;;;;5015418;28;20049;-68
2021/05/06 09:18:44;;;;;;;3.88;2.65;;;13.70;72.00;;;;;;5018322;28;20480;-68
2021/05/06 09:21:31;;;;;;;5.32;3.10;;;14.00;75.60;;;;;;5015841;28;20035;-68
2021/05/06 09:24:05;;;;;;;;;;;14.20;67.90;;;;;;5021119;28;20037;-68
2021/05/06 09:26:31;;;;;;;6.40;3.05;;;14.20;65.40;;;;;;5016798;28;19945;-68
2021/05/06 09:28:57;;;;;;;6.03;3.33;;;14.00;65.10;;;;;;5018237;28;20204;-68
2021/05/06 09:31:24;;;;;;;5.88;2.72;;;14.00;70.10;;;;;;5014682;28;20072;-68
2021/05/06 09:33:51;;;;;;;6.45;2.92;;;14.20;67.50;;;;;;5018494;28;20140;-68
2021/05/06 09:36:24;;;;;;;3.70;2.90;;;14.20;63.90;;;;;;5023105;28;20029;-68
2021/05/06 09:38:57;;;;;;;5.40;2.88;;;13.80;65.60;;;;;;5020446;28;20483;-68
2021/05/06 09:41:32;;;;;;;5.10;3.00;;;13.30;65.90;;;;;;5018641;28;20107;-68
2021/05/06 09:44:13;;;;;;;5.72;3.60;;;12.70;69.20;;;;;;5016783;28;20052;-68
2021/05/06 09:46:43;;;;;;;5.90;3.30;;;12.30;74.80;;;;;;5017018;28;20117;-68
2021/05/06 09:49:15;;;;;;;4.68;2.05;;;12.00;77.50;;;;;;5017287;28;20076;-68
2021/05/06 09:51:44;;;;;;;6.45;1.75;;;11.90;78.50;;;;;;5014376;28;20064;-68
2021/05/06 09:54:15;;;;;;;4.30;0.90;;;11.80;77.80;;;;;;5019519;28;20393;-68
2021/05/06 09:56:43;;;;;;;1.90;0.60;;;11.60;77.50;;;;;;5015561;28;20660;-68
2021/05/06 09:59:20;;;;;;;1.80;0.68;;;11.20;78.30;;;;;;5016749;28;20072;-67
2021/05/06 10:01:46;;;;;;;2.35;0.52;;;11.10;80.60;;;;;;5018552;28;20407;-67
2021/05/06 10:04:19;;;;;;;3.92;1.20;;;10.90;81.60;;;;;;5020186;28;20152;-67
2021/05/06 10:07:03;;;;;;;1.02;0.40;;;10.60;81.80;;;;;;5013938;28;20057;-67
2021/05/06 10:09:30;;;;;;;2.35;0.50;;;10.40;82.50;;;;;;5018472;28;20071;-67
2021/05/06 10:11:57;;;;;;;4.55;0.63;;;10.30;83.80;;;;;;5019191;28;20195;-67
2021/05/06 10:14:23;;;;;;;4.07;2.13;;;10.30;84.50;;;;;;5018595;28;20045;-67
2021/05/06 10:16:49;;;;;;;7.78;1.90;;;10.20;82.30;;;;;;5024385;28;20423;-67
2021/05/06 10:19:16;;;;;;;3.60;2.03;;;9.80;84.90;;;;;;5025089;28;20132;-68
2021/05/06 10:21:43;;;;;;;6.55;1.63;;;9.60;87.70;;;;;;5017964;28;20048;-67
2021/05/06 10:24:10;;;;;;;5.45;2.67;;;9.50;90.00;;;;;;5022393;28;20076;-67
2021/05/06 10:26:38;;;;;;;4.22;2.88;;;9.30;90.70;;;;;;5023064;28;20463;-67
2021/05/06 10:29:04;;;;;;;4.22;1.92;;;9.30;90.60;;;;;;5026242;28;20120;-67
2021/05/06 10:31:30;;;;;;;3.53;2.53;;;9.20;90.40;;;;;;5026059;28;20037;-67
2021/05/06 10:33:55;;;;;;;5.45;2.00;;;9.20;90.80;;;;;;5027000;28;20041;-67
2021/05/06 10:36:23;;;;;;;3.55;2.58;;;9.40;92.60;;;;;;5025667;28;20068;-68
2021/05/06 10:38:49;;;;;;;1.77;1.65;;;9.70;93.00;;;;;;5027478;28;20407;-68
2021/05/06 10:41:32;;;;;;;2.58;2.25;;;10.00;92.30;;;;;;5027072;28;20471;-68
2021/05/06 10:44:00;;;;;;;5.97;1.95;;;10.10;90.80;;;;;;5026069;28;20033;-68
2021/05/06 10:47:01;;;;;;;3.35;2.50;;;10.30;91.30;;;;;;5024219;28;20033;-68
2021/05/06 10:49:37;;;;;;;3.22;2.10;;;10.80;92.20;;;;;;5026034;28;20037;-68
2021/05/06 10:52:07;;;;;;;3.88;2.25;;;11.20;89.60;;;;;;5020371;28;20033;-68
2021/05/06 10:54:41;;;;;;;3.72;2.13;;;11.50;89.30;;;;;;5026238;28;20131;-68
2021/05/06 10:57:10;;;;;;;3.95;2.90;;;11.80;88.50;;;;;;5024900;28;20128;-68
2021/05/06 10:59:41;;;;;;;3.80;3.15;;;12.00;86.80;;;;;;5021366;28;20045;-68
2021/05/06 11:02:08;;;;;;;3.97;2.53;;;12.40;87.10;;;;;;5021483;28;20144;-68
2021/05/06 11:04:42;;;;;;;2.75;2.20;;;12.50;86.40;;;;;;5020671;28;20037;-68
2021/05/06 11:07:12;;;;;;;3.50;2.43;;;12.50;83.40;;;;;;5026199;28;20144;-68
2021/05/06 11:09:46;;;;;;;5.53;3.28;;;12.50;82.80;;;;;;5026809;28;20550;-68
2021/05/06 11:12:15;;;;;;;5.43;3.60;;;12.50;84.20;;;;;;5021124;28;20033;-68
2021/05/06 11:15:03;;;;;;;4.25;2.28;;;12.40;84.60;;;;;;5024563;28;20075;-68
2021/05/06 11:17:34;;;;;;;4.82;1.42;;;12.20;82.20;;;;;;5022667;28;20781;-68
2021/05/06 11:20:29;;;;;;;1.83;1.67;;;11.90;82.10;;;;;;5023497;28;20043;-67
2021/05/06 11:22:57;;;;;;;2.45;1.88;;;11.70;83.40;;;;;;5022329;28;20091;-68
2021/05/06 11:25:47;;;;;;;3.17;1.40;;;11.60;84.00;;;;;;5024590;28;20044;-68
2021/05/06 11:28:15;;;;;;;1.40;0.73;;;11.40;81.80;;;;;;5021517;28;20041;-67
2021/05/06 11:30:44;;;;;;;2.20;1.23;;;11.40;84.70;;;;;;5023838;28;20517;-68
2021/05/06 11:33:22;;;;;;;3.50;1.75;;;11.50;88.30;;;;;;5022663;28;20048;-68
2021/05/06 11:36:17;;;;;;;3.38;1.80;;;11.80;91.00;;;;;;5023841;28;20046;-67
2021/05/06 11:38:45;;;;;;;2.20;1.92;;;11.80;84.60;;;;;;5024548;28;20087;-68
2021/05/06 11:41:16;;;;;;;4.97;3.58;;;11.80;83.50;;;;;;5020558;28;20491;-68
2021/05/06 11:43:59;;;;;;;3.80;2.08;;;11.80;84.30;;;;;;5022439;28;20076;-68
2021/05/06 11:46:33;;;;;;;2.78;1.98;;;12.00;84.60;;;;;;5025563;28;20133;-68
2021/05/06 11:49:03;;;;;;;3.13;2.45;;;12.20;81.30;;;;;;5024781;28;20049;-68
2021/05/06 11:51:43;;;;;;;2.58;2.38;;;12.30;81.00;;;;;;5022515;28;20107;-67
2021/05/06 11:54:10;;;;;;;3.10;2.30;;;12.50;81.50;;;;;;5023123;28;20037;-68
2021/05/06 11:56:42;;;;;;;5.18;2.90;;;12.50;79.50;;;;;;5040809;28;20506;-68
2021/05/06 11:59:18;;;;;;;3.17;2.72;;;12.50;77.80;;;;;;5025668;28;20127;-68
2021/05/06 12:01:45;;;;;;;4.03;3.30;;;12.40;77.80;;;;;;5019262;28;20041;-67
2021/05/06 12:04:31;;;;;;;4.45;3.05;;;12.40;76.10;;;;;;5021528;28;20045;-68
2021/05/06 12:06:58;;;;;;;3.28;2.97;;;12.40;76.10;;;;;;5023522;28;20052;-68
2021/05/06 12:09:31;;;;;;;4.03;2.70;;;12.50;77.70;;;;;;5025912;28;20387;-68
2021/05/06 12:11:57;;;;;;;4.20;3.45;;;12.70;78.70;;;;;;5021042;28;20044;-68
2021/05/06 12:14:36;;;;;;;4.40;4.00;;;12.90;77.50;;;;;;5026422;28;20471;-68
2021/05/06 12:17:03;;;;;;;4.22;3.83;;;13.10;76.20;;;;;;5024414;28;20042;-68
2021/05/06 12:19:29;;;;;;;5.00;3.42;;;13.30;74.60;;;;;;5024333;28;20098;-68
2021/05/06 12:21:58;;;;;;;3.42;3.13;;;13.60;77.70;;;;;;5022671;28;20140;-68
2021/05/06 12:24:32;;;;;;;4.13;3.20;;;13.80;74.20;;;;;;5022723;28;20190;-68
2021/05/06 12:27:13;;;;;;;6.25;3.58;;;13.80;71.80;;;;;;5024483;28;20050;-68
2021/05/06 12:29:39;;;;;;;5.38;3.35;;;13.70;70.90;;;;;;5025756;28;20042;-68
2021/05/06 12:32:05;;;;;;;3.92;3.40;;;13.50;65.20;;;;;;5015095;28;21254;-67
2021/05/06 12:34:34;;;;;;;4.28;3.30;;;13.20;67.70;;;;;;5020036;28;20395;-67
2021/05/06 12:37:02;;;;;;;3.38;2.90;;;13.10;71.70;;;;;;5024135;28;20052;-68
2021/05/06 12:39:29;;;;;;;4.47;3.38;;;13.00;70.10;;;;;;5019767;28;20657;-68
2021/05/06 12:42:01;;;;;;;4.75;3.95;;;13.10;72.00;;;;;;5020274;28;20083;-68
2021/05/06 12:44:47;;;;;;;6.07;3.70;;;13.10;71.40;;;;;;5023361;28;20661;-67
2021/05/06 12:47:15;;;;;;;5.38;2.78;;;13.00;71.20;;;;;;5022465;28;20045;-67
2021/05/06 12:49:46;;;;;;;4.15;3.17;;;12.90;72.70;;;;;;5023127;28;20447;-68
2021/05/06 12:52:43;;;;;;;4.28;3.08;;;12.90;71.30;;;;;;5019906;28;20518;-67
2021/05/06 12:55:25;;;;;;;4.35;3.53;;;12.80;70.40;;;;;;5025927;28;20040;-67
2021/05/06 12:58:19;;;;;;;4.03;3.25;;;12.70;68.80;;;;;;5024194;28;20060;-67
2021/05/06 13:00:54;;;;;;;3.75;3.45;;;12.50;70.50;;;;;;5020992;28;20112;-67
2021/05/06 13:03:27;;;;;;;;;;;12.40;71.90;;;;;;5022747;28;20041;-67
2021/05/06 13:05:53;;;;;;;3.58;3.22;;;12.10;72.60;;;;;;5021988;28;19921;-67
2021/05/06 13:08:37;;;;;;;5.82;3.78;;;11.90;73.20;;;;;;5023706;28;20518;-67
2021/05/06 13:11:05;;;;;;;4.85;3.80;;;11.80;74.70;;;;;;5020953;28;20045;-67
2021/05/06 13:13:47;;;;;;;6.70;4.30;;;11.80;75.90;;;;;;5023932;28;20082;-67
2021/05/06 13:16:34;;;;;;;5.10;3.83;;;11.80;76.20;;;;;;5021411;28;20037;-67
2021/05/06 13:19:01;;;;;;;4.07;3.65;;;11.80;74.50;;;;;;5023274;28;20120;-67
2021/05/06 13:21:26;;;;;;;7.20;4.13;;;11.70;76.30;;;;;;5018497;28;20040;-67
2021/05/06 13:23:54;;;;;;;5.95;4.10;;;11.70;77.50;;;;;;5021655;28;20045;-67
2021/05/06 13:26:37;;;;;;;4.15;3.50;;;11.70;82.80;;;;;;5021783;28;20480;-67
2021/05/06 13:29:05;;;;;;;4.38;3.97;;;11.80;83.90;;;;;;5022679;28;20555;-67
2021/05/06 13:31:34;;;;;;;4.90;3.70;;;11.80;84.70;;;;;;5017993;28;20368;-68
2021/05/06 13:34:16;;;;;;;4.55;3.80;;;11.80;88.30;;;;;;5021945;28;20949;-67
2021/05/06 13:36:44;;;;;;;6.43;3.17;;;11.90;87.90;;;;;;5022869;28;20118;-67
2021/05/06 13:39:14;;;;;;;4.78;2.80;;;12.00;86.40;;;;;;5023487;28;20418;-67
2021/05/06 13:41:42;;;;;;;3.50;3.20;;;12.00;86.00;;;;;;5018396;28;20048;-67
2021/05/06 13:44:09;;;;;;;13.48;4.18;;;12.00;86.80;;;;;;5026622;28;20049;-67
2021/05/06 13:46:46;;;;;;;3.22;2.40;;;12.10;86.40;;;;;;5024938;28;20114;-67
2021/05/06 13:49:13;;;;;;;3.63;3.10;;;12.10;85.00;;;;;;5026716;28;20625;-67
2021/05/06 13:51:39;;;;;;;4.25;2.47;;;12.00;83.10;;;;;;5023708;28;20064;-67
2021/05/06 13:54:05;;;;;;;5.90;3.20;;;12.10;82.90;;;;;;5025222;28;20079;-67
2021/05/06 13:56:31;;;;;;;3.90;3.42;;;12.10;82.60;;;;;;5026854;28;20052;-67
2021/05/06 13:58:56;;;;;;;3.67;2.75;;;12.10;79.80;;;;;;5027406;28;20041;-67
2021/05/06 14:01:22;;;;;;;5.05;3.38;;;12.20;77.60;;;;;;5023439;28;20068;-66
2021/05/06 14:03:49;;;;;;;3.83;3.28;;;12.10;81.00;;;;;;5029553;28;20565;-67
2021/05/06 14:06:14;;;;;;;3.88;2.88;;;12.00;79.60;;;;;;5026072;28;20041;-67
2021/05/06 14:08:40;;;;;;;5.80;3.75;;;11.70;81.10;;;;;;5028201;28;20042;-67
2021/05/06 14:11:06;;;;;;;4.32;3.40;;;11.60;79.70;;;;;;5026440;28;20672;-66
2021/05/06 14:13:32;;;;;;;4.97;3.20;;;11.40;80.20;;;;;;5027512;28;20041;-67
2021/05/06 14:15:59;;;;;;;3.63;3.28;;;11.10;81.70;;;;;;5023633;28;20064;-67
2021/05/06 14:18:25;;;;;;;4.13;3.35;;;10.90;82.90;;;;;;5027409;28;20041;-67
2021/05/06 14:20:53;;;;;;;4.75;3.50;;;10.70;84.00;;;;;;5018576;28;20041;-66
2021/05/06 14:23:20;;;;;;;4.22;3.83;;;10.60;84.80;;;;;;5024847;28;20042;-67
2021/05/06 14:25:47;;;;;;;5.32;3.90;;;10.50;86.30;;;;;;5026481;28;20060;-66
2021/05/06 14:28:14;;;;;;;4.15;3.75;;;10.30;87.50;;;;;;5024226;28;20506;-67
2021/05/06 14:30:39;;;;;;;4.63;3.90;;;10.30;88.50;;;;;;5023895;28;20037;-66
2021/05/06 14:33:05;;;;;;;4.28;2.30;;;10.20;88.90;;;;;;5024853;28;20657;-67
2021/05/06 14:35:31;;;;;;;4.72;2.97;;;10.10;89.40;;;;;;5027733;28;20819;-67
2021/05/06 14:37:58;;;;;;;2.63;1.73;;;10.00;89.80;;;;;;5023591;28;20046;-67
2021/05/06 14:40:23;;;;;;;4.65;2.83;;;9.70;90.90;;;;;;5024615;28;20485;-66
2021/05/06 14:42:49;;;;;;;6.15;2.60;;;9.20;91.60;;;;;;5028523;28;20155;-66
2021/05/06 14:45:16;;;;;;;6.53;2.70;;;8.90;92.60;;;;;;5029057;28;20183;-66
2021/05/06 14:47:42;;;;;;;5.15;3.05;;;8.50;93.70;;;;;;5029502;28;20037;-66
2021/05/06 14:50:13;;;;;;;9.73;2.90;;;8.20;93.90;;;;;;5028408;28;20045;-66
2021/05/06 14:52:39;;;;;;;5.45;2.70;;;7.90;95.00;;;;;;5026417;28;20053;-66
2021/05/06 14:55:08;;;;;;;3.38;2.22;;;7.80;95.30;;;;;;5027883;28;20045;-66
2021/05/06 14:57:33;;;;;;;5.70;3.70;;;7.60;96.10;;;;;;5028888;28;20072;-66
2021/05/06 14:59:59;;;;;;;5.75;3.80;;;7.50;96.40;;;;;;5029488;28;20046;-66
2021/05/06 15:02:25;;;;;;;4.57;3.80;;;7.40;96.90;;;;;;5028168;28;20044;-66
2021/05/06 15:04:52;;;;;;;5.90;4.05;;;7.30;97.10;;;;;;5026467;28;20096;-66
2021/05/06 15:07:18;;;;;;;6.60;4.05;;;7.40;98.50;;;;;;5029215;28;20128;-66
2021/05/06 15:09:44;;;;;;;6.15;4.13;;;7.30;98.10;;;;;;5028661;28;20549;-66
2021/05/06 15:12:10;;;;;;;6.15;4.75;;;7.30;98.30;;;;;;5027189;28;21642;-66
2021/05/06 15:14:36;;;;;;;5.03;4.53;;;7.50;98.90;;;;;;5024389;28;20034;-66
2021/05/06 15:17:01;;;;;;;4.97;4.00;;;7.50;99.00;;;;;;5027426;28;20057;-65
2021/05/06 15:19:27;;;;;;;5.60;5.10;;;7.50;98.80;;;;;;5024999;28;20144;-66
2021/05/06 15:21:53;;;;;;;7.10;5.88;;;7.40;99.00;;;;;;5027129;28;20125;-67
2021/05/06 15:24:19;;;;;;;5.65;5.03;;;7.40;99.50;;;;;;5025867;28;21326;-67
2021/05/06 15:26:44;;;;;;;5.45;4.95;;;7.50;99.90;;;;;;5027954;28;20033;-66
2021/05/06 15:29:10;;;;;;;4.57;4.18;;;7.60;99.90;;;;;;5028674;28;20053;-66
2021/05/06 15:31:36;;;;;;;7.03;6.35;;;7.60;99.90;;;;;;5026740;28;20033;-67
2021/05/06 15:34:03;;;;;;;7.47;5.47;;;7.70;99.90;;;;;;5028241;28;20538;-66
2021/05/06 15:36:30;;;;;;;5.93;4.75;;;7.80;99.90;;;;;;5027748;28;20052;-67
2021/05/06 15:38:58;;;;;;;4.72;4.25;;;7.90;99.90;;;;;;5028990;28;20042;-66
2021/05/06 15:41:25;;;;;;;5.45;4.97;;;8.00;99.90;;;;;;5028475;28;20069;-66
2021/05/06 15:43:50;;;;;;;5.53;5.03;;;8.10;99.90;;;;;;5029538;28;20041;-66
2021/05/06 15:46:17;;;;;;;4.47;4.03;;;8.20;99.90;;;;;;5026381;28;20045;-66
2021/05/06 15:48:42;;;;;;;7.47;4.97;;;8.20;99.60;;;;;;5026703;28;20392;-66
2021/05/06 15:51:08;;;;;;;4.88;4.28;;;8.20;99.50;;;;;;5028699;28;20049;-66
2021/05/06 15:53:34;;;;;;;4.55;4.15;;;8.20;99.50;;;;;;5030206;28;20472;-66
2021/05/06 15:56:00;;;;;;;6.97;5.07;;;8.30;99.40;;;;;;5024637;28;20551;-66
2021/05/06 15:58:26;;;;;;;4.85;4.38;;;8.40;99.60;;;;;;5028318;28;20159;-66
2021/05/06 16:00:56;;;;;;;5.00;4.60;;;8.40;99.40;;;;;;5028142;28;20037;-66
2021/05/06 16:03:22;;;;;;;4.38;3.97;;;8.30;98.90;;;;;;5028780;28;20113;-67
2021/05/06 16:05:53;;;;;;;5.60;4.68;;;8.40;99.10;;;;;;5028920;28;20108;-67
2021/05/06 16:08:19;;;;;;;4.85;4.45;;;8.50;99.40;;;;;;5027927;28;20049;-67
2021/05/06 16:10:46;;;;;;;6.22;5.60;;;8.50;99.70;;;;;;5027526;28;20152;-67
2021/05/06 16:13:12;;;;;;;6.30;5.15;;;8.40;99.90;;;;;;5027287;28;20038;-67
2021/05/06 16:15:38;;;;;;;6.00;5.50;;;8.60;99.90;;;;;;5023620;28;20040;-66
2021/05/06 16:18:04;;;;;;;5.90;5.38;;;8.50;99.80;;;;;;5030226;28;20048;-67
2021/05/06 16:20:39;;;;;;;6.15;4.80;;;8.40;99.60;;;;;;5030905;28;20044;-66
2021/05/06 16:23:06;;;;;;;4.30;4.00;;;8.40;99.40;;;;;;5026570;28;20042;-67
2021/05/06 16:25:32;;;;;;;3.65;3.33;;;8.30;99.80;;;;;;5029166;28;20133;-67
2021/05/06 16:27:58;;;;;;;3.50;3.20;;;8.40;99.60;;;;;;5026698;28;20045;-67
2021/05/06 16:30:26;;;;;;;3.38;3.05;;;8.40;99.50;;;;;;5027723;28;20069;-67